sensor_id;sensor_type;location;lat;lon;timestamp;pressure;altitude;pressure_sealevel;temperature;humidity
52249;BME280;38541;48.130;8.378;2023-04-01T00:01:05;91591.53;;;5.49;80.51
52249;BME280;38541;48.130;8.378;2023-04-01T00:03:33;91583.47;;;5.50;79.57
52249;BME280;38541;48.130;8.378;2023-04-01T00:06:00;91595.97;;;5.48;79.13
52249;BME280;38541;48.130;8.378;2023-04-01T00:08:27;91591.31;;;5.50;79.34
52249;BME280;38541;48.130;8.378;2023-04-01T00:10:54;91597.78;;;5.32;78.21
52249;BME280;38541;48.130;8.378;2023-04-01T00:13:21;91594.13;;;5.28;78.33
52249;BME280;38541;48.130;8.378;2023-04-01T00:15:47;91589.44;;;5.30;78.94
52249;BME280;38541;48.130;8.378;2023-04-01T00:18:14;91588.91;;;5.23;79.05
52249;BME280;38541;48.130;8.378;2023-04-01T00:20:49;91587.84;;;5.19;78.65
52249;BME280;38541;48.130;8.378;2023-04-01T00:23:17;91596.16;;;5.10;79.44
52249;BME280;38541;48.130;8.378;2023-04-01T00:25:45;91583.91;;;5.06;79.93
52249;BME280;38541;48.130;8.378;2023-04-01T00:28:18;91576.34;;;4.99;79.53
52249;BME280;38541;48.130;8.378;2023-04-01T00:30:45;91577.41;;;5.08;80.23
52249;BME280;38541;48.130;8.378;2023-04-01T00:33:12;91586.03;;;5.19;79.68
52249;BME280;38541;48.130;8.378;2023-04-01T00:35:39;91582.09;;;5.17;79.46
52249;BME280;38541;48.130;8.378;2023-04-01T00:38:06;91584.19;;;5.20;79.82
52249;BME280;38541;48.130;8.378;2023-04-01T00:40:36;91607.06;;;5.02;78.79
52249;BME280;38541;48.130;8.378;2023-04-01T00:43:18;91588.88;;;5.07;79.58
52249;BME280;38541;48.130;8.378;2023-04-01T00:45:48;91595.13;;;5.11;79.49
52249;BME280;38541;48.130;8.378;2023-04-01T00:48:18;91593.56;;;5.05;79.66
52249;BME280;38541;48.130;8.378;2023-04-01T00:51:05;91589.88;;;5.01;79.97
52249;BME280;38541;48.130;8.378;2023-04-01T00:53:34;91584.13;;;4.94;80.97
52249;BME280;38541;48.130;8.378;2023-04-01T00:56:07;91587.84;;;5.13;81.30
52249;BME280;38541;48.130;8.378;2023-04-01T00:58:39;91576.09;;;5.11;80.09
52249;BME280;38541;48.130;8.378;2023-04-01T01:01:08;91570.66;;;5.07;80.74
52249;BME280;38541;48.130;8.378;2023-04-01T01:03:36;91568.03;;;5.07;80.46
52249;BME280;38541;48.130;8.378;2023-04-01T01:09:25;91580.03;;;5.08;80.56
52249;BME280;38541;48.130;8.378;2023-04-01T01:12:05;91567.53;;;5.05;80.99
52249;BME280;38541;48.130;8.378;2023-04-01T01:14:48;91569.09;;;5.11;81.05
52249;BME280;38541;48.130;8.378;2023-04-01T01:17:34;91561.28;;;5.06;81.50
52249;BME280;38541;48.130;8.378;2023-04-01T01:31:26;91546.41;;;4.96;82.51
52249;BME280;38541;48.130;8.378;2023-04-01T01:34:11;91556.03;;;4.85;82.31
52249;BME280;38541;48.130;8.378;2023-04-01T01:36:43;91556.03;;;4.96;83.04
52249;BME280;38541;48.130;8.378;2023-04-01T01:39:12;91550.88;;;5.06;83.26
52249;BME280;38541;48.130;8.378;2023-04-01T01:41:42;91556.06;;;5.11;83.29
52249;BME280;38541;48.130;8.378;2023-04-01T01:44:12;91559.97;;;5.09;81.20
52249;BME280;38541;48.130;8.378;2023-04-01T01:46:41;91544.09;;;5.10;81.79
52249;BME280;38541;48.130;8.378;2023-04-01T01:49:10;91541.47;;;5.00;81.62
52249;BME280;38541;48.130;8.378;2023-04-01T01:51:38;91553.94;;;4.88;79.95
52249;BME280;38541;48.130;8.378;2023-04-01T01:54:13;91546.13;;;4.93;80.40
52249;BME280;38541;48.130;8.378;2023-04-01T01:56:41;91542.97;;;4.80;79.99
52249;BME280;38541;48.130;8.378;2023-04-01T01:59:11;91541.19;;;4.91;81.25
52249;BME280;38541;48.130;8.378;2023-04-01T02:01:42;91545.06;;;4.78;80.87
52249;BME280;38541;48.130;8.378;2023-04-01T02:04:13;91551.06;;;4.84;81.88
52249;BME280;38541;48.130;8.378;2023-04-01T02:06:54;91536.25;;;4.90;82.09
52249;BME280;38541;48.130;8.378;2023-04-01T02:09:22;91541.69;;;4.88;82.49
52249;BME280;38541;48.130;8.378;2023-04-01T02:11:52;91536.53;;;4.93;82.94
52249;BME280;38541;48.130;8.378;2023-04-01T02:14:25;91550.31;;;4.94;82.96
52249;BME280;38541;48.130;8.378;2023-04-01T02:16:59;91563.03;;;4.90;82.28
52249;BME280;38541;48.130;8.378;2023-04-01T02:19:31;91554.19;;;4.91;81.13
52249;BME280;38541;48.130;8.378;2023-04-01T02:22:02;91534.94;;;4.92;80.02
52249;BME280;38541;48.130;8.378;2023-04-01T02:24:31;91521.69;;;4.99;80.78
52249;BME280;38541;48.130;8.378;2023-04-01T02:26:59;91527.41;;;4.96;79.94
52249;BME280;38541;48.130;8.378;2023-04-01T02:29:27;91527.16;;;4.97;80.40
52249;BME280;38541;48.130;8.378;2023-04-01T02:31:54;91544.06;;;5.00;80.46
52249;BME280;38541;48.130;8.378;2023-04-01T02:34:22;91549.00;;;4.91;79.14
52249;BME280;38541;48.130;8.378;2023-04-01T02:36:49;91536.78;;;4.97;79.97
52249;BME280;38541;48.130;8.378;2023-04-01T02:39:16;91544.59;;;5.02;79.32
52249;BME280;38541;48.130;8.378;2023-04-01T02:41:44;91534.69;;;4.99;80.08
52249;BME280;38541;48.130;8.378;2023-04-01T02:44:13;91534.69;;;4.99;80.38
52249;BME280;38541;48.130;8.378;2023-04-01T02:46:41;91524.56;;;5.03;81.32
52249;BME280;38541;48.130;8.378;2023-04-01T02:49:08;91536.03;;;5.12;81.18
52249;BME280;38541;48.130;8.378;2023-04-01T02:51:35;91536.78;;;4.97;80.05
52249;BME280;38541;48.130;8.378;2023-04-01T02:54:02;91548.22;;;4.96;80.63
52249;BME280;38541;48.130;8.378;2023-04-01T02:56:28;91531.06;;;5.00;80.95
52249;BME280;38541;48.130;8.378;2023-04-01T02:58:55;91539.38;;;4.97;80.43
52249;BME280;38541;48.130;8.378;2023-04-01T03:01:22;91527.94;;;4.98;80.96
52249;BME280;38541;48.130;8.378;2023-04-01T03:03:49;91546.66;;;5.00;81.49
52249;BME280;38541;48.130;8.378;2023-04-01T03:06:16;91534.16;;;4.92;80.45
52249;BME280;38541;48.130;8.378;2023-04-01T03:08:44;91552.66;;;5.00;80.43
52249;BME280;38541;48.130;8.378;2023-04-01T03:11:11;91546.44;;;5.02;80.36
52249;BME280;38541;48.130;8.378;2023-04-01T03:13:38;91549.03;;;5.02;80.82
52249;BME280;38541;48.130;8.378;2023-04-01T03:16:05;91537.06;;;5.06;81.25
52249;BME280;38541;48.130;8.378;2023-04-01T03:18:31;91538.38;;;5.08;80.83
52249;BME280;38541;48.130;8.378;2023-04-01T03:21:15;91542.00;;;5.07;80.71
52249;BME280;38541;48.130;8.378;2023-04-01T03:23:43;91541.97;;;5.02;80.69
52249;BME280;38541;48.130;8.378;2023-04-01T03:26:09;91561.75;;;4.88;81.25
52249;BME280;38541;48.130;8.378;2023-04-01T03:28:36;91569.53;;;4.82;81.45
52249;BME280;38541;48.130;8.378;2023-04-01T03:31:03;91569.78;;;4.81;82.01
52249;BME280;38541;48.130;8.378;2023-04-01T03:33:36;91558.28;;;4.71;81.61
52249;BME280;38541;48.130;8.378;2023-04-01T03:36:03;91559.63;;;4.74;81.26
52249;BME280;38541;48.130;8.378;2023-04-01T03:38:33;91565.28;;;4.61;79.99
52249;BME280;38541;48.130;8.378;2023-04-01T03:41:01;91547.56;;;4.52;81.16
52249;BME280;38541;48.130;8.378;2023-04-01T03:43:28;91537.97;;;4.58;80.62
52249;BME280;38541;48.130;8.378;2023-04-01T03:45:55;91547.84;;;4.56;80.76
52249;BME280;38541;48.130;8.378;2023-04-01T03:48:25;91542.38;;;4.57;80.88
52249;BME280;38541;48.130;8.378;2023-04-01T03:50:52;91561.16;;;4.65;81.10
52249;BME280;38541;48.130;8.378;2023-04-01T03:53:19;91558.22;;;4.51;81.14
52249;BME280;38541;48.130;8.378;2023-04-01T03:55:46;91561.66;;;4.62;81.46
52249;BME280;38541;48.130;8.378;2023-04-01T03:58:14;91562.22;;;4.69;81.40
52249;BME280;38541;48.130;8.378;2023-04-01T04:00:41;91571.50;;;4.49;81.11
52249;BME280;38541;48.130;8.378;2023-04-01T04:03:08;91570.16;;;4.47;81.39
52249;BME280;38541;48.130;8.378;2023-04-01T04:05:35;91568.38;;;4.52;81.78
52249;BME280;38541;48.130;8.378;2023-04-01T04:08:02;91554.38;;;4.64;81.98
52249;BME280;38541;48.130;8.378;2023-04-01T04:10:30;91575.22;;;4.74;81.78
52249;BME280;38541;48.130;8.378;2023-04-01T04:12:57;91560.59;;;4.57;81.06
52249;BME280;38541;48.130;8.378;2023-04-01T04:15:25;91565.56;;;4.59;82.12
52249;BME280;38541;48.130;8.378;2023-04-01T04:17:51;91577.22;;;4.51;82.08
52249;BME280;38541;48.130;8.378;2023-04-01T04:20:18;91549.66;;;4.55;82.70
52249;BME280;38541;48.130;8.378;2023-04-01T04:22:44;91558.75;;;4.53;81.56
52249;BME280;38541;48.130;8.378;2023-04-01T04:25:11;91533.53;;;4.53;82.07
52249;BME280;38541;48.130;8.378;2023-04-01T04:27:38;91540.06;;;4.56;81.71
52249;BME280;38541;48.130;8.378;2023-04-01T04:30:10;91538.22;;;4.56;82.08
52249;BME280;38541;48.130;8.378;2023-04-01T04:32:37;91531.97;;;4.57;82.15
52249;BME280;38541;48.130;8.378;2023-04-01T04:35:04;91533.03;;;4.62;81.81
52249;BME280;38541;48.130;8.378;2023-04-01T04:37:33;91538.75;;;4.64;80.63
52249;BME280;38541;48.130;8.378;2023-04-01T04:39:59;91549.66;;;4.55;80.85
52249;BME280;38541;48.130;8.378;2023-04-01T04:42:27;91555.16;;;4.64;81.17
52249;BME280;38541;48.130;8.378;2023-04-01T04:44:59;91568.41;;;4.57;80.87
52249;BME280;38541;48.130;8.378;2023-04-01T04:47:26;91575.66;;;4.50;81.32
52249;BME280;38541;48.130;8.378;2023-04-01T04:49:53;91547.56;;;4.47;82.08
52249;BME280;38541;48.130;8.378;2023-04-01T04:52:19;91553.53;;;4.53;82.41
52249;BME280;38541;48.130;8.378;2023-04-01T04:54:46;91558.50;;;4.49;82.25
52249;BME280;38541;48.130;8.378;2023-04-01T04:57:12;91543.41;;;4.51;81.47
52249;BME280;38541;48.130;8.378;2023-04-01T04:59:46;91538.72;;;4.48;81.85
52249;BME280;38541;48.130;8.378;2023-04-01T05:02:19;91528.84;;;4.55;82.04
52249;BME280;38541;48.130;8.378;2023-04-01T05:04:46;91531.75;;;4.59;81.43
52249;BME280;38541;48.130;8.378;2023-04-01T05:07:13;91522.91;;;4.60;81.48
52249;BME280;38541;48.130;8.378;2023-04-01T05:09:40;91530.19;;;4.68;82.05
52249;BME280;38541;48.130;8.378;2023-04-01T05:12:06;91522.91;;;4.65;81.98
52249;BME280;38541;48.130;8.378;2023-04-01T05:14:53;91537.75;;;4.65;81.47
52249;BME280;38541;48.130;8.378;2023-04-01T05:17:20;91533.56;;;4.64;81.44
52249;BME280;38541;48.130;8.378;2023-04-01T05:19:47;91541.41;;;4.69;81.32
52249;BME280;38541;48.130;8.378;2023-04-01T05:22:13;91531.25;;;4.67;80.99
52249;BME280;38541;48.130;8.378;2023-04-01T05:24:40;91539.31;;;4.66;80.76
52249;BME280;38541;48.130;8.378;2023-04-01T05:27:07;91534.13;;;4.76;81.02
52249;BME280;38541;48.130;8.378;2023-04-01T05:29:37;91522.72;;;4.88;81.01
52249;BME280;38541;48.130;8.378;2023-04-01T05:32:07;91536.50;;;4.88;80.63
52249;BME280;38541;48.130;8.378;2023-04-01T05:34:34;91537.78;;;4.80;79.89
52249;BME280;38541;48.130;8.378;2023-04-01T05:37:00;91545.84;;;4.79;80.78
52249;BME280;38541;48.130;8.378;2023-04-01T05:39:27;91545.09;;;4.83;80.26
52249;BME280;38541;48.130;8.378;2023-04-01T05:41:53;91535.72;;;4.88;81.15
52249;BME280;38541;48.130;8.378;2023-04-01T05:44:20;91541.19;;;4.86;80.92
52249;BME280;38541;48.130;8.378;2023-04-01T05:47:12;91541.44;;;4.90;81.41
52249;BME280;38541;48.130;8.378;2023-04-01T05:49:39;91530.00;;;4.85;81.02
52249;BME280;38541;48.130;8.378;2023-04-01T05:52:06;91537.28;;;4.99;81.18
52249;BME280;38541;48.130;8.378;2023-04-01T05:54:34;91537.06;;;5.00;81.01
52249;BME280;38541;48.130;8.378;2023-04-01T05:57:01;91549.78;;;4.97;80.76
52249;BME280;38541;48.130;8.378;2023-04-01T05:59:28;91552.13;;;4.93;80.51
52249;BME280;38541;48.130;8.378;2023-04-01T06:01:54;91554.19;;;4.91;80.64
52249;BME280;38541;48.130;8.378;2023-04-01T06:04:23;91553.44;;;4.91;81.41
52249;BME280;38541;48.130;8.378;2023-04-01T06:06:51;91542.50;;;4.94;81.04
52249;BME280;38541;48.130;8.378;2023-04-01T06:09:21;91563.31;;;4.83;81.00
52249;BME280;38541;48.130;8.378;2023-04-01T06:15:52;91547.19;;;4.97;81.21
52249;BME280;38541;48.130;8.378;2023-04-01T06:23:40;91540.72;;;5.15;81.09
52249;BME280;38541;48.130;8.378;2023-04-01T06:26:24;91551.91;;;5.21;80.62
52249;BME280;38541;48.130;8.378;2023-04-01T06:46:52;91535.53;;;5.15;80.30
52249;BME280;38541;48.130;8.378;2023-04-01T06:52:19;91530.56;;;5.13;81.41
52249;BME280;38541;48.130;8.378;2023-04-01T06:55:25;91533.16;;;5.19;81.07
52249;BME280;38541;48.130;8.378;2023-04-01T06:58:42;91535.78;;;5.24;81.16
52249;BME280;38541;48.130;8.378;2023-04-01T07:01:15;91535.28;;;5.27;80.83
52249;BME280;38541;48.130;8.378;2023-04-01T07:03:55;91535.78;;;5.13;80.38
52249;BME280;38541;48.130;8.378;2023-04-01T07:06:31;91562.06;;;5.12;79.54
52249;BME280;38541;48.130;8.378;2023-04-01T07:09:06;91549.31;;;5.05;80.06
52249;BME280;38541;48.130;8.378;2023-04-01T07:15:42;91548.28;;;5.37;80.40
52249;BME280;38541;48.130;8.378;2023-04-01T07:18:15;91537.56;;;5.08;80.05
52249;BME280;38541;48.130;8.378;2023-04-01T07:20:43;91539.66;;;5.11;79.90
52249;BME280;38541;48.130;8.378;2023-04-01T07:23:24;91533.69;;;5.05;80.38
52249;BME280;38541;48.130;8.378;2023-04-01T07:26:17;91548.25;;;5.11;81.12
52249;BME280;38541;48.130;8.378;2023-04-01T07:29:08;91538.66;;;5.12;81.09
52249;BME280;38541;48.130;8.378;2023-04-01T07:34:31;91543.84;;;5.22;80.19
52249;BME280;38541;48.130;8.378;2023-04-01T07:52:00;91552.47;;;5.43;80.15
52249;BME280;38541;48.130;8.378;2023-04-01T07:54:33;91566.03;;;5.46;78.72
52249;BME280;38541;48.130;8.378;2023-04-01T07:57:14;91553.50;;;5.48;80.13
52249;BME280;38541;48.130;8.378;2023-04-01T08:00:08;91556.13;;;5.63;79.69
52249;BME280;38541;48.130;8.378;2023-04-01T08:05:41;91558.97;;;5.67;79.53
52249;BME280;38541;48.130;8.378;2023-04-01T08:08:21;91553.25;;;5.49;79.15
52249;BME280;38541;48.130;8.378;2023-04-01T08:11:56;91560.81;;;5.51;79.44
52249;BME280;38541;48.130;8.378;2023-04-01T08:14:55;91553.53;;;5.63;79.58
52249;BME280;38541;48.130;8.378;2023-04-01T08:18:03;91561.59;;;5.82;78.61
52249;BME280;38541;48.130;8.378;2023-04-01T08:21:01;91557.94;;;5.94;77.68
52249;BME280;38541;48.130;8.378;2023-04-01T08:26:30;91562.31;;;6.30;77.57
52249;BME280;38541;48.130;8.378;2023-04-01T08:29:18;91569.13;;;6.25;77.49
52249;BME280;38541;48.130;8.378;2023-04-01T08:31:59;91560.28;;;6.16;76.96
52249;BME280;38541;48.130;8.378;2023-04-01T08:34:34;91569.66;;;6.12;77.71
52249;BME280;38541;48.130;8.378;2023-04-01T08:37:14;91583.47;;;5.97;76.60
52249;BME280;38541;48.130;8.378;2023-04-01T08:39:48;91564.22;;;6.08;78.61
52249;BME280;38541;48.130;8.378;2023-04-01T08:53:59;91572.53;;;6.05;78.19
52249;BME280;38541;48.130;8.378;2023-04-01T08:57:33;91573.03;;;5.86;77.30
52249;BME280;38541;48.130;8.378;2023-04-01T09:02:55;91558.72;;;6.20;78.82
52249;BME280;38541;48.130;8.378;2023-04-01T09:05:40;91567.34;;;6.10;78.45
52249;BME280;38541;48.130;8.378;2023-04-01T09:17:38;91581.66;;;6.08;79.07
52249;BME280;38541;48.130;8.378;2023-04-01T09:20:34;91576.44;;;6.13;78.70
52249;BME280;38541;48.130;8.378;2023-04-01T09:28:55;91582.41;;;6.45;77.47
52249;BME280;38541;48.130;8.378;2023-04-01T09:37:35;91573.25;;;6.42;78.17
52249;BME280;38541;48.130;8.378;2023-04-01T09:43:16;91586.06;;;6.33;77.86
52249;BME280;38541;48.130;8.378;2023-04-01T09:46:07;91592.09;;;6.23;77.02
52249;BME280;38541;48.130;8.378;2023-04-01T09:54:26;91582.94;;;6.31;77.25
52249;BME280;38541;48.130;8.378;2023-04-01T10:00:21;91583.41;;;6.43;76.29
52249;BME280;38541;48.130;8.378;2023-04-01T10:09:25;91588.38;;;6.45;77.63
52249;BME280;38541;48.130;8.378;2023-04-01T10:12:29;91599.63;;;6.25;77.24
52249;BME280;38541;48.130;8.378;2023-04-01T10:15:09;91591.03;;;6.30;77.74
52249;BME280;38541;48.130;8.378;2023-04-01T10:17:54;91613.94;;;6.48;77.57
52249;BME280;38541;48.130;8.378;2023-04-01T10:24:06;91605.63;;;6.15;77.00
52249;BME280;38541;48.130;8.378;2023-04-01T10:30:13;91598.59;;;6.21;77.52
52249;BME280;38541;48.130;8.378;2023-04-01T10:38:34;91603.53;;;6.38;77.49
52249;BME280;38541;48.130;8.378;2023-04-01T11:11:16;91618.28;;;6.79;76.44
52249;BME280;38541;48.130;8.378;2023-04-01T11:17:00;91616.78;;;7.28;74.05
52249;BME280;38541;48.130;8.378;2023-04-01T11:19:56;91621.47;;;7.36;74.12
52249;BME280;38541;48.130;8.378;2023-04-01T11:22:52;91625.66;;;7.27;73.40
52249;BME280;38541;48.130;8.378;2023-04-01T11:25:42;91625.88;;;6.75;74.08
52249;BME280;38541;48.130;8.378;2023-04-01T11:31:27;91631.59;;;6.82;74.89
52249;BME280;38541;48.130;8.378;2023-04-01T11:34:04;91636.84;;;6.77;74.96
52249;BME280;38541;48.130;8.378;2023-04-01T11:39:27;91627.34;;;7.02;75.84
52249;BME280;38541;48.130;8.378;2023-04-01T11:43:01;91652.72;;;6.91;74.35
52249;BME280;38541;48.130;8.378;2023-04-01T11:46:12;91642.56;;;6.84;74.93
52249;BME280;38541;48.130;8.378;2023-04-01T11:48:53;91631.03;;;6.96;76.17
52249;BME280;38541;48.130;8.378;2023-04-01T11:51:40;91630.53;;;6.89;74.34
52249;BME280;38541;48.130;8.378;2023-04-01T12:00:33;91657.22;;;6.70;75.80
52249;BME280;38541;48.130;8.378;2023-04-01T12:06:06;91672.91;;;6.60;74.40
52249;BME280;38541;48.130;8.378;2023-04-01T12:08:57;91659.88;;;6.44;75.30
52249;BME280;38541;48.130;8.378;2023-04-01T12:11:53;91653.59;;;6.35;76.17
52249;BME280;38541;48.130;8.378;2023-04-01T12:17:29;91658.31;;;6.43;75.03
52249;BME280;38541;48.130;8.378;2023-04-01T12:20:26;91645.78;;;6.55;76.40
52249;BME280;38541;48.130;8.378;2023-04-01T12:31:51;91653.84;;;6.64;74.57
52249;BME280;38541;48.130;8.378;2023-04-01T12:37:16;91655.19;;;6.41;76.12
52249;BME280;38541;48.130;8.378;2023-04-01T12:39:59;91653.59;;;6.35;76.72
52249;BME280;38541;48.130;8.378;2023-04-01T12:45:30;91663.03;;;6.36;75.65
52249;BME280;38541;48.130;8.378;2023-04-01T12:51:08;91668.75;;;6.43;75.33
52249;BME280;38541;48.130;8.378;2023-04-01T12:59:25;91650.22;;;6.45;75.87
52249;BME280;38541;48.130;8.378;2023-04-01T13:02:01;91652.53;;;6.51;75.68
52249;BME280;38541;48.130;8.378;2023-04-01T13:08:27;91655.69;;;6.43;76.54
52249;BME280;38541;48.130;8.378;2023-04-01T13:11:09;91653.09;;;6.43;76.13
52249;BME280;38541;48.130;8.378;2023-04-01T13:16:25;91656.22;;;6.35;76.07
52249;BME280;38541;48.130;8.378;2023-04-01T13:19:09;91650.19;;;6.55;76.64
52249;BME280;38541;48.130;8.378;2023-04-01T13:24:45;91655.66;;;6.53;74.74
52249;BME280;38541;48.130;8.378;2023-04-01T13:27:26;91657.47;;;6.74;75.50
52249;BME280;38541;48.130;8.378;2023-04-01T13:33:04;91661.13;;;6.83;76.63
52249;BME280;38541;48.130;8.378;2023-04-01T13:36:17;91662.38;;;6.91;74.89
52249;BME280;38541;48.130;8.378;2023-04-01T13:39:08;91664.72;;;6.97;74.29
52249;BME280;38541;48.130;8.378;2023-04-01T13:42:04;91664.72;;;6.97;74.47
52249;BME280;38541;48.130;8.378;2023-04-01T13:44:45;91665.78;;;6.91;75.35
52249;BME280;38541;48.130;8.378;2023-04-01T13:47:41;91668.06;;;7.08;75.94
52249;BME280;38541;48.130;8.378;2023-04-01T14:10:40;91668.09;;;7.64;72.73
52249;BME280;38541;48.130;8.378;2023-04-01T14:15:55;91663.44;;;7.50;73.02
52249;BME280;38541;48.130;8.378;2023-04-01T14:19:11;91669.03;;;7.33;71.65
52249;BME280;38541;48.130;8.378;2023-04-01T14:21:29;91668.00;;;7.79;72.63
52249;BME280;38541;48.130;8.378;2023-04-01T14:24:20;91661.53;;;7.66;71.98
52249;BME280;38541;48.130;8.378;2023-04-01T14:30:05;91651.53;;;8.13;72.25
52249;BME280;38541;48.130;8.378;2023-04-01T14:32:52;91669.22;;;8.27;70.78
52249;BME280;38541;48.130;8.378;2023-04-01T14:35:42;91674.72;;;8.31;69.93
52249;BME280;38541;48.130;8.378;2023-04-01T14:38:25;91662.56;;;8.40;68.76
52249;BME280;38541;48.130;8.378;2023-04-01T14:41:19;91655.19;;;8.52;70.67
52249;BME280;38541;48.130;8.378;2023-04-01T14:43:56;91664.13;;;8.41;69.27
52249;BME280;38541;48.130;8.378;2023-04-01T14:46:52;91657.84;;;8.42;68.53
52249;BME280;38541;48.130;8.378;2023-04-01T14:49:41;91678.94;;;8.26;69.05
52249;BME280;38541;48.130;8.378;2023-04-01T14:52:33;91673.50;;;8.18;70.27
52249;BME280;38541;48.130;8.378;2023-04-01T14:55:19;91673.13;;;7.95;69.81
52249;BME280;38541;48.130;8.378;2023-04-01T14:58:20;91672.34;;;7.94;71.10
52249;BME280;38541;48.130;8.378;2023-04-01T15:12:30;91680.31;;;8.53;68.78
52249;BME280;38541;48.130;8.378;2023-04-01T15:29:25;91674.03;;;9.27;64.37
52249;BME280;38541;48.130;8.378;2023-04-01T15:40:19;91698.22;;;9.68;64.08
52249;BME280;38541;48.130;8.378;2023-04-01T15:51:49;91701.56;;;8.76;66.98
52249;BME280;38541;48.130;8.378;2023-04-01T16:02:35;91708.81;;;8.15;67.30
52249;BME280;38541;48.130;8.378;2023-04-01T16:08:17;91699.63;;;8.57;68.59
52249;BME280;38541;48.130;8.378;2023-04-01T16:11:12;91696.13;;;9.46;66.64
52249;BME280;38541;48.130;8.378;2023-04-01T16:24:50;91691.63;;;9.27;65.01
52249;BME280;38541;48.130;8.378;2023-04-01T16:27:25;91696.03;;;9.07;64.96
52249;BME280;38541;48.130;8.378;2023-04-01T16:30:27;91705.41;;;8.84;66.33
52249;BME280;38541;48.130;8.378;2023-04-01T16:33:20;91707.31;;;8.43;67.39
52249;BME280;38541;48.130;8.378;2023-04-01T16:41:38;91722.34;;;8.27;68.87
52249;BME280;38541;48.130;8.378;2023-04-01T16:44:22;91714.03;;;8.20;69.85
52249;BME280;38541;48.130;8.378;2023-04-01T16:47:06;91717.13;;;8.22;70.18
52249;BME280;38541;48.130;8.378;2023-04-01T16:49:57;91712.25;;;8.10;70.37
52249;BME280;38541;48.130;8.378;2023-04-01T16:52:55;91725.47;;;7.90;68.58
52249;BME280;38541;48.130;8.378;2023-04-01T16:55:45;91738.97;;;7.52;68.94
52249;BME280;38541;48.130;8.378;2023-04-01T16:58:40;91723.91;;;7.33;69.60
52249;BME280;38541;48.130;8.378;2023-04-01T17:01:13;91738.75;;;7.38;70.07
52249;BME280;38541;48.130;8.378;2023-04-01T17:03:45;91735.94;;;7.19;70.86
52249;BME280;38541;48.130;8.378;2023-04-01T17:09:30;91733.53;;;7.38;69.76
52249;BME280;38541;48.130;8.378;2023-04-01T17:14:51;91729.63;;;7.35;69.87
52249;BME280;38541;48.130;8.378;2023-04-01T17:17:27;91728.06;;;7.34;70.95
52249;BME280;38541;48.130;8.378;2023-04-01T17:22:32;91734.59;;;7.32;70.78
52249;BME280;38541;48.130;8.378;2023-04-01T17:25:02;91738.03;;;7.17;71.36
52249;BME280;38541;48.130;8.378;2023-04-01T17:27:40;91741.44;;;7.17;72.33
52249;BME280;38541;48.130;8.378;2023-04-01T17:30:28;91742.44;;;7.32;71.90
52249;BME280;38541;48.130;8.378;2023-04-01T17:33:13;91746.91;;;7.31;71.61
52249;BME280;38541;48.130;8.378;2023-04-01T17:41:41;91755.28;;;7.07;71.80
52249;BME280;38541;48.130;8.378;2023-04-01T17:50:00;91769.94;;;6.98;72.56
52249;BME280;38541;48.130;8.378;2023-04-01T17:52:39;91770.47;;;7.00;72.69
52249;BME280;38541;48.130;8.378;2023-04-01T17:58:21;91774.13;;;6.83;73.17
52249;BME280;38541;48.130;8.378;2023-04-01T18:01:30;91771.78;;;6.82;73.82
52249;BME280;38541;48.130;8.378;2023-04-01T18:04:17;91776.22;;;6.81;73.63
52249;BME280;38541;48.130;8.378;2023-04-01T18:07:26;91775.72;;;6.74;73.41
52249;BME280;38541;48.130;8.378;2023-04-01T18:15:53;91778.84;;;6.71;74.59
52249;BME280;38541;48.130;8.378;2023-04-01T18:21:36;91783.53;;;6.84;74.15
52249;BME280;38541;48.130;8.378;2023-04-01T18:24:33;91779.38;;;6.78;73.11
52249;BME280;38541;48.130;8.378;2023-04-01T18:27:03;91773.09;;;6.79;74.45
52249;BME280;38541;48.130;8.378;2023-04-01T18:30:11;91775.97;;;6.83;74.74
52249;BME280;38541;48.130;8.378;2023-04-01T18:32:51;91771.25;;;6.80;74.54
52249;BME280;38541;48.130;8.378;2023-04-01T18:38:13;91779.09;;;6.75;74.45
52249;BME280;38541;48.130;8.378;2023-04-01T18:40:45;91781.97;;;6.78;74.32
52249;BME280;38541;48.130;8.378;2023-04-01T18:43:22;91784.31;;;6.75;74.76
52249;BME280;38541;48.130;8.378;2023-04-01T18:46:00;91786.41;;;6.73;74.59
52249;BME280;38541;48.130;8.378;2023-04-01T18:49:07;91790.06;;;6.61;74.92
52249;BME280;38541;48.130;8.378;2023-04-01T18:54:41;91805.97;;;6.65;74.75
52249;BME280;38541;48.130;8.378;2023-04-01T18:57:13;91814.84;;;6.53;74.42
52249;BME280;38541;48.130;8.378;2023-04-01T18:59:51;91807.81;;;6.49;74.80
52249;BME280;38541;48.130;8.378;2023-04-01T19:02:36;91813.53;;;6.40;74.56
52249;BME280;38541;48.130;8.378;2023-04-01T19:05:23;91815.88;;;6.37;74.68
52249;BME280;38541;48.130;8.378;2023-04-01T19:07:53;91817.19;;;6.39;74.71
52249;BME280;38541;48.130;8.378;2023-04-01T19:16:21;91816.91;;;6.25;74.97
52249;BME280;38541;48.130;8.378;2023-04-01T19:18:55;91836.19;;;6.24;75.27
52249;BME280;38541;48.130;8.378;2023-04-01T19:21:47;91830.94;;;6.14;74.80
52249;BME280;38541;48.130;8.378;2023-04-01T19:27:12;91832.78;;;6.13;75.03
52249;BME280;38541;48.130;8.378;2023-04-01T19:32:49;91839.84;;;6.18;74.92
52249;BME280;38541;48.130;8.378;2023-04-01T19:38:10;91834.06;;;6.11;74.56
52249;BME280;38541;48.130;8.378;2023-04-01T19:40:48;91835.34;;;6.03;75.00
52249;BME280;38541;48.130;8.378;2023-04-01T19:51:33;91845.91;;;5.76;75.79
52249;BME280;38541;48.130;8.378;2023-04-01T19:54:13;91847.47;;;5.77;76.27
52249;BME280;38541;48.130;8.378;2023-04-01T19:56:52;91845.94;;;5.81;75.75
52249;BME280;38541;48.130;8.378;2023-04-01T19:59:30;91853.47;;;5.77;75.68
52249;BME280;38541;48.130;8.378;2023-04-01T20:07:58;91860.97;;;5.63;76.30
52249;BME280;38541;48.130;8.378;2023-04-01T20:10:38;91863.53;;;5.58;76.27
52249;BME280;38541;48.130;8.378;2023-04-01T20:13:24;91871.03;;;5.49;76.34
52249;BME280;38541;48.130;8.378;2023-04-01T20:16:07;91865.28;;;5.42;76.66
52249;BME280;38541;48.130;8.378;2023-04-01T20:18:49;91868.09;;;5.35;77.56
52249;BME280;38541;48.130;8.378;2023-04-01T20:24:00;91866.28;;;5.31;77.13
52249;BME280;38541;48.130;8.378;2023-04-01T20:26:32;91873.78;;;5.27;76.89
52249;BME280;38541;48.130;8.378;2023-04-01T20:29:12;91870.41;;;5.26;77.00
52249;BME280;38541;48.130;8.378;2023-04-01T20:32:04;91882.34;;;5.22;77.01
52249;BME280;38541;48.130;8.378;2023-04-01T20:34:50;91876.09;;;5.18;77.25